San Antonio, TX (78236)

6:57 PM CST on December 24, 2014 (GMT -0600)
West Wood Village | Change Station
CLOSE
Current Station
Personal Weather Station
Location: San Antonio, TX
Elevation: 741 ft
Nearby Weather Stations

Elev 741 ft 29.43 °N, 98.63 °W | Updated 4 seconds ago

Clear
Clear
49.6 °F
Feels Like 50 °F
N
0.0
Wind Variable Wind from West
Gusts 0.0 mph

Today
High -- | Low -- °F
--% Chance of Precip.
Yesterday
High -- | Low -- °F
Precip. -- in
7:26 AM 5:42 PM
Waxing Crescent, 12% visible
Pressure 30.09 in
Visibility 10.0 miles
Clouds Clear
Windchill 50 °F
Dew Point 31 °F
Humidity 49%
Rainfall 0.00 in
Snow Depth Not available.
UV 0.0 out of 12
Pollen 9.20 out of 12
Air Quality Not available.
Flu Activity Not available.
METAR KSKF 242358Z AUTO 32005KT 10SM CLR 12/M03 A3008 RMK AO2 SLP188 T01161031 10142 20116 55002 $

More Conditions Fewer Conditions

Pressure 30.09 in
Visibility 10.0 miles
Clouds Clear
Windchill 50 °F
Dew Point 31 °F
Humidity 49%
Rainfall 0.00 in
Snow Depth Not available.
UV 0.0 out of 12
Pollen 9.20 out of 12
Air Quality Not available.
Flu Activity Not available.
METAR KSKF 242358Z AUTO 32005KT 10SM CLR 12/M03 A3008 RMK AO2 SLP188 T01161031 10142 20116 55002 $

More Conditions Fewer Conditions

10-Day Weather Forecast

Almanac

Astronomy

Dec. 24, 2014 Rise Set
Actual Time
Civil Twilight
Nautical Twilight
Astronomical Twilight
Moon
Length of Visible Light
Length of Day
Tomorrow will be .
, % of the Moon is Illuminated

Today's Extremes

State Highs State Lows

Community

WunderPhotos

Upload Photos

1,780,194 photos uploaded!

WunderBlogs® & News

Nearby

Air Quality

  Air Quality AQ Index Pollutant
Not available.

Snow Depth

Station Depth Elevation

Earthquake Activity

City Distance Mag. Time & Date
Minimum magnitude displayed is 2.5.

Coastal Water Temperatures

Place Temperature

Nearby Weather Stations